Time;durP1;ratioP1;P1;durP2;ratioP2;P2;SDS_P1;SDS_P2;PMS_P1;PMS_P2;Temp;Humidity;BMP_temperature;BMP_pressure;BME280_temperature;BME280_humidity;BME280_pressure;Samples;Min_cycle;Max_cycle;Signal;HPM_P1;HPM_P2
2021/08/01 00:01:23;;;;;;;;;;;;;;;25.54;43.75;94478.41;2941450;40;19949;-81
2021/08/01 00:03:25;;;;;;;;;;;;;;;25.34;43.58;94476.41;2950074;40;19953;-77
2021/08/01 00:05:26;;;;;;;;;;;;;;;25.36;43.93;94468.91;2950541;40;20027;-78
2021/08/01 00:07:28;;;;;;;;;;;;;;;25.43;44.54;94468.69;2950289;40;19949;-79
2021/08/01 00:09:29;;;;;;;;;;;;;;;25.52;45.17;94461.78;2940115;40;20269;-78
2021/08/01 00:11:31;;;;;;;;;;;;;;;25.42;43.76;94464.38;2950316;40;19941;-79
2021/08/01 00:13:32;;;;;;;;;;;;;;;25.33;45.07;94470.22;2950998;40;19960;-79
2021/08/01 00:15:34;;;;;;;;;;;;;;;25.27;44.94;94471.22;2950993;40;19941;-79
2021/08/01 00:17:36;;;;;;;;;;;;;;;25.26;44.50;94468.81;2952462;40;19949;-81
2021/08/01 00:19:37;;;;;;;;;;;;;;;25.27;44.77;94465.06;2955020;40;19953;-81
2021/08/01 00:21:39;;;;;;;;;;;;;;;25.38;45.05;94461.38;2951848;40;19936;-80
2021/08/01 00:23:40;;;;;;;;;;;;;;;25.50;45.22;94463.91;2950192;40;19945;-78
2021/08/01 00:25:42;;;;;;;;;;;;;;;25.59;45.36;94466.91;2951849;40;19983;-80
2021/08/01 00:27:43;;;;;;;;;;;;;;;25.53;45.32;94468.75;2955773;40;19981;-80
2021/08/01 00:29:45;;;;;;;;;;;;;;;25.40;45.40;94470.00;2942909;40;20012;-79
2021/08/01 00:31:47;;;;;;;;;;;;;;;25.07;46.86;94468.38;2948063;40;19942;-79
2021/08/01 00:33:49;;;;;;;;;;;;;;;25.04;47.42;94469.69;2954310;40;20332;-79
2021/08/01 00:35:50;;;;;;;;;;;;;;;25.07;47.78;94471.06;2951493;40;20035;-80
2021/08/01 00:37:52;;;;;;;;;;;;;;;25.12;48.16;94469.22;2942425;40;20024;-78
2021/08/01 00:39:53;;;;;;;;;;;;;;;25.02;48.42;94469.13;2949332;40;20312;-80
2021/08/01 00:41:55;;;;;;;;;;;;;;;24.93;48.83;94471.47;2952294;40;20082;-81
2021/08/01 00:43:57;;;;;;;;;;;;;;;24.41;51.14;94481.88;2951628;40;19941;-81
2021/08/01 00:45:58;;;;;;;;;;;;;;;24.15;52.35;94481.56;2948603;40;20487;-78
2021/08/01 00:48:00;;;;;;;;;;;;;;;23.91;54.12;94489.84;2950633;40;20013;-78
2021/08/01 00:50:06;;;;;;;;;;;;;;;23.52;55.76;94492.47;2948575;40;19951;-79
2021/08/01 00:52:07;;;;;;;;;;;;;;;23.66;55.53;94481.44;2942484;40;19980;-80
2021/08/01 00:54:09;;;;;;;;;;;;;;;23.85;55.08;94482.78;2953084;40;20071;-80
2021/08/01 00:56:11;;;;;;;;;;;;;;;24.04;55.06;94485.19;2951831;40;19948;-81
2021/08/01 00:58:12;;;;;;;;;;;;;;;24.04;55.17;94483.31;2951643;40;20305;-82
2021/08/01 01:02:37;;;;;;;;;;;;;;;23.04;59.26;94511.75;2950393;40;19952;-78
2021/08/01 01:04:43;;;;;;;;;;;;;;;23.10;59.32;94502.75;2944786;40;19941;-79
2021/08/01 01:06:52;;;;;;;;;;;;;;;23.21;58.85;94488.53;2946341;40;20005;-81
2021/08/01 01:08:55;;;;;;;;;;;;;;;23.41;58.64;94489.91;2950442;40;19937;-80
2021/08/01 01:10:57;;;;;;;;;;;;;;;23.62;58.22;94489.16;2950657;40;19937;-80
2021/08/01 01:13:06;;;;;;;;;;;;;;;23.80;57.45;94497.97;2950475;40;19977;-80
2021/08/01 01:15:11;;;;;;;;;;;;;;;23.88;57.13;94500.25;2953993;40;19941;-77
2021/08/01 01:17:13;;;;;;;;;;;;;;;23.98;56.69;94500.34;2954127;40;19949;-80
2021/08/01 01:19:19;;;;;;;;;;;;;;;24.08;56.42;94499.69;2950664;40;19949;-80
2021/08/01 01:21:26;;;;;;;;;;;;;;;24.14;56.27;94497.91;2950643;40;20028;-80
2021/08/01 01:23:30;;;;;;;;;;;;;;;24.18;55.66;94490.97;2949235;40;19999;-80
2021/08/01 01:25:38;;;;;;;;;;;;;;;24.26;55.67;94493.22;2950472;40;19956;-79
2021/08/01 01:27:42;;;;;;;;;;;;;;;24.30;55.27;94494.34;2942988;40;20039;-80
2021/08/01 01:30:10;;;;;;;;;;;;;;;24.30;54.91;94497.00;2950389;40;20183;-80
2021/08/01 01:32:16;;;;;;;;;;;;;;;24.28;54.83;94496.44;2943164;40;20046;-80
2021/08/01 01:34:18;;;;;;;;;;;;;;;24.27;54.69;94495.66;2949572;40;20400;-69
2021/08/01 01:36:23;;;;;;;;;;;;;;;24.30;54.60;94499.69;2940828;40;20054;-70
2021/08/01 01:38:24;;;;;;;;;;;;;;;24.34;54.28;94495.44;2949567;40;19957;-69
2021/08/01 01:40:26;;;;;;;;;;;;;;;24.37;54.40;94504.84;2949612;40;20294;-69
2021/08/01 01:42:28;;;;;;;;;;;;;;;24.34;54.54;94508.84;2948553;40;19945;-69
2021/08/01 01:44:30;;;;;;;;;;;;;;;24.22;54.52;94503.63;2945749;40;19949;-69
2021/08/01 01:46:31;;;;;;;;;;;;;;;24.20;54.88;94499.56;2941206;40;20031;-69
2021/08/01 01:48:33;;;;;;;;;;;;;;;24.20;55.15;94502.22;2945395;40;19970;-68
2021/08/01 01:50:35;;;;;;;;;;;;;;;24.16;55.39;94501.94;2951680;40;20038;-69
2021/08/01 01:52:36;;;;;;;;;;;;;;;24.17;55.91;94510.78;2949725;40;20023;-71
2021/08/01 01:54:39;;;;;;;;;;;;;;;24.18;55.62;94507.84;2950219;40;19944;-70
2021/08/01 01:56:40;;;;;;;;;;;;;;;24.18;54.98;94509.69;2939236;40;19938;-70
2021/08/01 01:58:42;;;;;;;;;;;;;;;24.14;55.60;94508.59;2939468;40;19937;-72
2021/08/01 02:00:44;;;;;;;;;;;;;;;24.14;55.36;94509.41;2949250;40;20028;-70
2021/08/01 02:02:46;;;;;;;;;;;;;;;24.17;55.07;94510.78;2950628;40;19937;-70
2021/08/01 02:04:48;;;;;;;;;;;;;;;24.22;55.02;94516.19;2949455;40;20332;-70
2021/08/01 02:06:49;;;;;;;;;;;;;;;24.29;54.96;94514.16;2950278;40;20024;-69
2021/08/01 02:08:57;;;;;;;;;;;;;;;24.29;54.59;94509.59;2949854;40;19953;-70
2021/08/01 02:10:59;;;;;;;;;;;;;;;24.26;54.52;94502.06;2952071;40;19964;-68
2021/08/01 02:13:00;;;;;;;;;;;;;;;24.21;54.26;94507.34;2948694;40;19953;-69
2021/08/01 02:15:08;;;;;;;;;;;;;;;24.19;54.14;94503.31;2938996;40;19937;-69
2021/08/01 02:17:10;;;;;;;;;;;;;;;24.17;54.34;94500.06;2947995;40;19953;-69
2021/08/01 02:19:12;;;;;;;;;;;;;;;24.10;54.19;94500.25;2945708;40;19941;-69
2021/08/01 02:21:13;;;;;;;;;;;;;;;24.04;54.19;94503.91;2949389;40;19945;-68
2021/08/01 02:23:25;;;;;;;;;;;;;;;24.03;54.75;94511.13;2942596;40;19976;-68
2021/08/01 02:25:27;;;;;;;;;;;;;;;24.00;54.15;94511.63;2941268;40;19933;-69
2021/08/01 02:27:32;;;;;;;;;;;;;;;24.00;54.24;94508.94;2940616;40;19945;-69
2021/08/01 02:29:33;;;;;;;;;;;;;;;24.02;54.28;94504.16;2947792;40;20007;-79
2021/08/01 02:31:35;;;;;;;;;;;;;;;24.06;54.26;94510.63;2947582;40;19945;-69
2021/08/01 02:33:36;;;;;;;;;;;;;;;24.12;53.85;94509.66;2952327;40;19945;-69
2021/08/01 02:35:38;;;;;;;;;;;;;;;24.08;54.09;94513.88;2941310;40;19943;-69
2021/08/01 02:37:39;;;;;;;;;;;;;;;24.11;54.00;94510.72;2948744;40;20035;-69
2021/08/01 02:39:41;;;;;;;;;;;;;;;24.14;53.70;94511.28;2951000;40;20013;-67
2021/08/01 02:41:43;;;;;;;;;;;;;;;24.15;53.80;94515.56;2949689;40;19943;-68
2021/08/01 02:43:45;;;;;;;;;;;;;;;24.11;53.71;94509.88;2949003;40;19956;-69
2021/08/01 02:45:46;;;;;;;;;;;;;;;23.89;54.36;94509.88;2940804;40;19961;-70
2021/08/01 02:47:49;;;;;;;;;;;;;;;23.62;54.41;94513.22;2949840;40;19949;-70
2021/08/01 02:49:51;;;;;;;;;;;;;;;23.56;55.09;94516.88;2949157;40;19952;-69
2021/08/01 02:51:53;;;;;;;;;;;;;;;23.62;55.02;94515.88;2948952;40;19948;-68
2021/08/01 02:53:54;;;;;;;;;;;;;;;23.71;55.20;94518.97;2949067;40;20282;-69
2021/08/01 02:55:57;;;;;;;;;;;;;;;23.81;55.29;94520.97;2949841;40;20034;-80
2021/08/01 02:58:00;;;;;;;;;;;;;;;23.84;55.05;94521.31;2949799;40;20270;-80
2021/08/01 03:00:02;;;;;;;;;;;;;;;23.89;54.67;94516.03;2949928;40;19940;-78
2021/08/01 03:02:04;;;;;;;;;;;;;;;23.94;54.60;94512.63;2939480;40;19946;-79
2021/08/01 03:04:05;;;;;;;;;;;;;;;23.97;54.76;94522.81;2942556;40;19969;-81
2021/08/01 03:06:07;;;;;;;;;;;;;;;23.94;55.04;94519.81;2942930;40;20498;-80
2021/08/01 03:08:12;;;;;;;;;;;;;;;23.92;55.40;94520.09;2949707;40;19995;-79
2021/08/01 03:10:14;;;;;;;;;;;;;;;23.94;55.34;94522.50;2953219;40;19969;-83
2021/08/01 03:12:16;;;;;;;;;;;;;;;23.89;55.30;94521.38;2949073;40;19940;-78
2021/08/01 03:14:17;;;;;;;;;;;;;;;23.89;55.61;94521.38;2950994;40;20326;-78
2021/08/01 03:16:19;;;;;;;;;;;;;;;23.87;56.25;94518.13;2941929;40;20021;-78
2021/08/01 03:18:21;;;;;;;;;;;;;;;23.82;56.61;94520.75;2944691;40;20022;-78
2021/08/01 03:20:22;;;;;;;;;;;;;;;23.78;57.18;94534.84;2951010;40;20035;-79
2021/08/01 03:22:24;;;;;;;;;;;;;;;23.65;57.48;94531.44;2940676;40;20324;-68
2021/08/01 03:24:25;;;;;;;;;;;;;;;23.57;57.85;94539.84;2943020;40;20360;-69
2021/08/01 03:26:27;;;;;;;;;;;;;;;23.53;58.21;94544.06;2943327;40;19936;-69
2021/08/01 03:28:29;;;;;;;;;;;;;;;23.49;58.13;94550.97;2950534;40;19985;-69
2021/08/01 03:30:30;;;;;;;;;;;;;;;23.47;58.46;94553.09;2941301;40;20527;-69
2021/08/01 03:32:32;;;;;;;;;;;;;;;23.17;59.70;94554.19;2943824;40;19949;-68
2021/08/01 03:34:34;;;;;;;;;;;;;;;22.83;60.63;94561.28;2950642;40;20213;-69
2021/08/01 03:36:35;;;;;;;;;;;;;;;22.29;62.27;94561.56;2945641;40;20027;-69
2021/08/01 03:38:37;;;;;;;;;;;;;;;22.36;62.18;94559.56;2943370;40;20037;-68
2021/08/01 03:40:39;;;;;;;;;;;;;;;22.48;61.87;94556.91;2950147;40;20300;-70
2021/08/01 03:42:40;;;;;;;;;;;;;;;22.12;63.06;94553.44;2953269;40;19957;-68
2021/08/01 03:44:42;;;;;;;;;;;;;;;22.17;62.85;94556.22;2941626;40;20114;-70
2021/08/01 03:46:43;;;;;;;;;;;;;;;21.96;63.50;94549.66;2949455;40;19960;-68
2021/08/01 03:48:45;;;;;;;;;;;;;;;21.93;64.02;94554.63;2953910;40;20249;-68
2021/08/01 03:50:46;;;;;;;;;;;;;;;22.05;63.26;94548.25;2946601;40;20066;-68
2021/08/01 03:52:48;;;;;;;;;;;;;;;21.84;63.41;94548.84;2948975;40;19949;-68
2021/08/01 03:54:50;;;;;;;;;;;;;;;21.49;64.56;94552.31;2949109;40;20397;-68
2021/08/01 03:56:52;;;;;;;;;;;;;;;21.51;65.13;94538.72;2940023;40;19956;-70
2021/08/01 03:58:54;;;;;;;;;;;;;;;21.54;64.95;94540.97;2954900;40;20387;-68
2021/08/01 04:00:56;;;;;;;;;;;;;;;21.44;64.40;94550.31;2949642;40;19949;-69
2021/08/01 04:02:58;;;;;;;;;;;;;;;21.40;64.04;94550.97;2954148;40;19933;-70
2021/08/01 04:04:59;;;;;;;;;;;;;;;21.26;64.02;94550.38;2950033;40;20067;-67
2021/08/01 04:07:01;;;;;;;;;;;;;;;21.12;64.31;94544.44;2948472;40;20304;-69
2021/08/01 04:09:04;;;;;;;;;;;;;;;21.26;64.50;94543.19;2948012;40;19933;-68
2021/08/01 04:11:06;;;;;;;;;;;;;;;21.57;63.80;94553.81;2956741;40;20035;-69
2021/08/01 04:13:07;;;;;;;;;;;;;;;21.92;62.87;94550.31;2954665;40;20026;-69
2021/08/01 04:15:11;;;;;;;;;;;;;;;22.27;61.38;94547.66;2953409;40;20325;-70
2021/08/01 04:17:13;;;;;;;;;;;;;;;22.51;59.94;94551.06;2952035;40;20278;-69
2021/08/01 04:19:14;;;;;;;;;;;;;;;22.75;59.41;94554.47;2950078;40;20281;-69
2021/08/01 04:21:16;;;;;;;;;;;;;;;22.93;58.41;94552.66;2954881;40;19949;-68
2021/08/01 04:23:17;;;;;;;;;;;;;;;23.10;57.64;94551.69;2949773;40;19957;-78
2021/08/01 04:25:19;;;;;;;;;;;;;;;23.04;58.05;94552.63;2953387;40;19969;-78
2021/08/01 04:27:21;;;;;;;;;;;;;;;22.85;58.52;94554.66;2948237;40;20026;-79
2021/08/01 04:29:22;;;;;;;;;;;;;;;22.93;58.87;94556.16;2951780;40;20031;-79
2021/08/01 04:31:24;;;;;;;;;;;;;;;22.83;59.00;94562.09;2950143;40;19964;-81
2021/08/01 04:33:25;;;;;;;;;;;;;;;22.67;59.68;94565.50;2948683;40;20194;-80
2021/08/01 04:35:27;;;;;;;;;;;;;;;22.54;59.83;94563.13;2954845;40;20297;-81
2021/08/01 04:37:29;;;;;;;;;;;;;;;22.56;59.96;94569.03;2953461;40;19959;-81
2021/08/01 04:39:30;;;;;;;;;;;;;;;22.52;59.89;94565.22;2952608;40;20324;-80
2021/08/01 04:41:32;;;;;;;;;;;;;;;22.65;59.97;94565.78;2950811;40;19938;-79
2021/08/01 04:43:33;;;;;;;;;;;;;;;22.82;59.65;94559.66;2949444;40;19952;-80
2021/08/01 04:45:35;;;;;;;;;;;;;;;23.03;59.08;94564.34;2943474;40;20021;-80
2021/08/01 04:47:37;;;;;;;;;;;;;;;23.22;57.94;94564.97;2949314;40;19970;-79
2021/08/01 04:49:39;;;;;;;;;;;;;;;23.43;57.72;94566.13;2951553;40;19949;-78
2021/08/01 04:51:40;;;;;;;;;;;;;;;23.64;57.24;94567.25;2948539;40;19937;-79
2021/08/01 04:53:42;;;;;;;;;;;;;;;23.79;56.93;94572.06;2941831;40;19941;-79
2021/08/01 04:55:43;;;;;;;;;;;;;;;23.93;56.08;94575.22;2941393;40;19940;-81
2021/08/01 04:57:45;;;;;;;;;;;;;;;24.03;55.76;94582.59;2950363;40;20030;-80
2021/08/01 04:59:46;;;;;;;;;;;;;;;23.77;56.17;94582.19;2939495;40;19953;-81
2021/08/01 05:01:48;;;;;;;;;;;;;;;23.77;56.29;94581.38;2949872;40;20013;-80
2021/08/01 05:03:50;;;;;;;;;;;;;;;23.86;55.91;94583.41;2952428;40;20199;-81
2021/08/01 05:05:51;;;;;;;;;;;;;;;23.91;56.24;94578.13;2950978;40;20223;-82
2021/08/01 05:07:53;;;;;;;;;;;;;;;23.93;56.24;94575.22;2950770;40;19981;-80
2021/08/01 05:09:55;;;;;;;;;;;;;;;23.68;56.81;94573.75;2951720;40;20034;-69
2021/08/01 05:11:56;;;;;;;;;;;;;;;23.39;57.29;94573.00;2951120;40;19941;-69
2021/08/01 05:13:58;;;;;;;;;;;;;;;23.18;57.78;94574.50;2940235;40;20254;-69
2021/08/01 05:15:59;;;;;;;;;;;;;;;23.17;58.60;94567.56;2949263;40;20039;-69
2021/08/01 05:18:02;;;;;;;;;;;;;;;23.29;57.33;94581.63;2950303;40;19970;-69
2021/08/01 05:20:03;;;;;;;;;;;;;;;23.44;56.50;94575.75;2945232;40;19937;-69
2021/08/01 05:22:06;;;;;;;;;;;;;;;23.62;56.26;94572.03;2946666;40;19937;-68
2021/08/01 05:24:07;;;;;;;;;;;;;;;23.85;56.06;94570.25;2949185;40;20014;-68
2021/08/01 05:26:09;;;;;;;;;;;;;;;24.06;55.68;94568.69;2951681;40;20298;-68
2021/08/01 05:28:10;;;;;;;;;;;;;;;24.23;55.08;94569.47;2952210;40;20019;-69
2021/08/01 05:30:12;;;;;;;;;;;;;;;24.40;54.78;94580.13;2940018;40;19941;-69
2021/08/01 05:32:13;;;;;;;;;;;;;;;24.47;54.93;94583.44;2951152;40;19955;-69
2021/08/01 05:34:15;;;;;;;;;;;;;;;24.60;54.49;94590.31;2951902;40;19949;-69
2021/08/01 05:36:17;;;;;;;;;;;;;;;24.73;54.09;94587.25;2949871;40;19968;-68
2021/08/01 05:38:18;;;;;;;;;;;;;;;24.82;54.13;94590.28;2951642;40;20194;-69
2021/08/01 05:40:20;;;;;;;;;;;;;;;24.80;54.29;94597.81;2944525;40;19941;-68
2021/08/01 05:42:21;;;;;;;;;;;;;;;24.78;54.67;94596.41;2950797;40;20098;-70
2021/08/01 05:44:23;;;;;;;;;;;;;;;24.26;56.17;94597.59;2948481;40;19941;-69
2021/08/01 05:46:24;;;;;;;;;;;;;;;24.06;56.82;94598.94;2934173;40;19937;-67
2021/08/01 05:48:26;;;;;;;;;;;;;;;24.23;56.29;94598.09;2948734;40;20093;-69
2021/08/01 05:50:27;;;;;;;;;;;;;;;24.43;55.66;94595.69;2946331;40;20286;-69
2021/08/01 05:52:29;;;;;;;;;;;;;;;24.62;54.60;94592.75;2939304;40;19944;-67
2021/08/01 05:54:31;;;;;;;;;;;;;;;24.79;53.73;94588.13;2947484;40;20218;-70
2021/08/01 05:56:32;;;;;;;;;;;;;;;24.98;53.23;94590.50;2947274;40;19949;-69
2021/08/01 05:58:34;;;;;;;;;;;;;;;24.88;53.14;94586.63;2949718;40;19941;-68
2021/08/01 06:00:35;;;;;;;;;;;;;;;24.98;52.60;94583.25;2950855;40;20297;-68
2021/08/01 06:02:37;;;;;;;;;;;;;;;25.01;51.93;94573.91;2949428;40;19941;-70
2021/08/01 06:04:40;;;;;;;;;;;;;;;24.75;51.95;94580.84;2942581;40;20134;-68
2021/08/01 06:06:41;;;;;;;;;;;;;;;24.65;52.49;94581.53;2946568;40;19933;-68
2021/08/01 06:08:44;;;;;;;;;;;;;;;24.91;52.36;94571.94;2950791;40;19972;-68
2021/08/01 06:10:45;;;;;;;;;;;;;;;24.77;52.12;94582.22;2949660;40;19941;-68
2021/08/01 06:12:47;;;;;;;;;;;;;;;24.73;52.08;94583.78;2950361;40;19945;-68
2021/08/01 06:14:49;;;;;;;;;;;;;;;24.91;51.61;94588.81;2951068;40;20034;-69
2021/08/01 06:16:50;;;;;;;;;;;;;;;25.10;51.69;94583.94;2949790;40;20023;-68
2021/08/01 06:18:52;;;;;;;;;;;;;;;24.82;52.24;94589.50;2951305;40;20249;-71
2021/08/01 06:21:02;;;;;;;;;;;;;;;24.81;52.20;94591.38;2950272;40;19953;-70
2021/08/01 06:23:04;;;;;;;;;;;;;;;25.08;51.12;94587.91;2944004;40;20297;-68
2021/08/01 06:25:05;;;;;;;;;;;;;;;25.30;50.39;94580.66;2949986;40;19956;-79
2021/08/01 06:27:09;;;;;;;;;;;;;;;25.13;52.09;94572.69;2950946;40;20208;-79
2021/08/01 06:29:11;;;;;;;;;;;;;;;25.00;52.99;94575.78;2951289;40;20038;-81
2021/08/01 06:31:12;;;;;;;;;;;;;;;25.08;52.13;94569.13;2950977;40;19953;-68
2021/08/01 06:33:14;;;;;;;;;;;;;;;25.19;51.43;94576.25;2949330;40;19948;-68
2021/08/01 06:35:15;;;;;;;;;;;;;;;25.15;51.09;94567.09;2950864;40;19949;-70
2021/08/01 06:37:17;;;;;;;;;;;;;;;25.23;50.74;94568.50;2957093;40;19952;-69
2021/08/01 06:39:18;;;;;;;;;;;;;;;25.37;50.96;94561.69;2947952;40;19945;-71
2021/08/01 06:41:20;;;;;;;;;;;;;;;25.62;50.43;94554.91;2951116;40;19965;-68
2021/08/01 06:43:21;;;;;;;;;;;;;;;25.71;51.02;94556.88;2941269;40;19944;-68
2021/08/01 06:45:23;;;;;;;;;;;;;;;25.73;51.12;94560.09;2943445;40;20009;-68
2021/08/01 06:47:25;;;;;;;;;;;;;;;25.36;51.00;94565.44;2944357;40;20050;-69
2021/08/01 06:49:26;;;;;;;;;;;;;;;25.47;50.98;94566.34;2951224;40;20039;-69
2021/08/01 06:51:42;;;;;;;;;;;;;;;25.61;50.75;94553.28;2950232;40;19941;-70
2021/08/01 06:53:44;;;;;;;;;;;;;;;25.39;51.22;94564.13;2941592;40;19948;-69
2021/08/01 06:55:46;;;;;;;;;;;;;;;25.23;51.80;94553.25;2949638;40;19949;-69
2021/08/01 06:57:47;;;;;;;;;;;;;;;25.49;51.79;94558.81;2950793;40;19945;-68
2021/08/01 06:59:49;;;;;;;;;;;;;;;25.78;51.14;94555.84;2950582;40;19941;-69
2021/08/01 07:01:50;;;;;;;;;;;;;;;26.11;50.27;94552.88;2948410;40;20022;-68
2021/08/01 07:03:52;;;;;;;;;;;;;;;26.07;49.82;94562.50;2943248;40;19937;-70
2021/08/01 07:05:54;;;;;;;;;;;;;;;26.03;49.75;94553.34;2942117;40;20011;-69
2021/08/01 07:07:56;;;;;;;;;;;;;;;26.15;49.55;94553.13;2950461;40;20019;-69
2021/08/01 07:09:57;;;;;;;;;;;;;;;26.09;49.98;94552.31;2946438;40;20060;-70
2021/08/01 07:11:59;;;;;;;;;;;;;;;26.08;50.18;94560.63;2950095;40;20394;-68
2021/08/01 07:14:00;;;;;;;;;;;;;;;26.06;50.36;94554.72;2950796;40;19961;-68
2021/08/01 07:16:02;;;;;;;;;;;;;;;26.02;50.51;94562.47;2940641;40;20017;-68
2021/08/01 07:18:04;;;;;;;;;;;;;;;26.17;50.50;94569.00;2948649;40;19969;-69
2021/08/01 07:20:10;;;;;;;;;;;;;;;26.34;49.59;94564.25;2944725;40;20010;-68
2021/08/01 07:22:11;;;;;;;;;;;;;;;26.58;48.85;94561.16;2949061;40;19956;-67
2021/08/01 07:24:13;;;;;;;;;;;;;;;26.83;48.55;94569.31;2944816;40;20096;-67
2021/08/01 07:26:14;;;;;;;;;;;;;;;27.08;47.76;94567.78;2942839;40;20049;-70
2021/08/01 07:28:16;;;;;;;;;;;;;;;27.31;46.71;94574.56;2950422;40;19941;-69
2021/08/01 07:30:18;;;;;;;;;;;;;;;27.22;46.90;94574.28;2950680;40;19985;-69
2021/08/01 07:32:20;;;;;;;;;;;;;;;27.02;47.57;94580.41;2950306;40;19937;-70
2021/08/01 07:34:21;;;;;;;;;;;;;;;27.15;47.49;94569.13;2950027;40;19941;-68
2021/08/01 07:36:23;;;;;;;;;;;;;;;26.64;47.48;94584.31;2944145;40;19993;-68
2021/08/01 07:38:25;;;;;;;;;;;;;;;26.46;47.79;94583.66;2948722;40;19953;-68
2021/08/01 07:40:26;;;;;;;;;;;;;;;26.47;48.13;94569.16;2945477;40;20034;-69
2021/08/01 07:42:28;;;;;;;;;;;;;;;26.82;46.85;94580.34;2948922;40;19948;-68
2021/08/01 07:44:32;;;;;;;;;;;;;;;27.01;46.72;94577.97;2950309;40;20004;-67
2021/08/01 07:46:34;;;;;;;;;;;;;;;27.34;46.04;94577.53;2950461;40;20027;-70
2021/08/01 07:48:35;;;;;;;;;;;;;;;27.64;45.00;94575.97;2950794;40;20149;-69
2021/08/01 07:50:37;;;;;;;;;;;;;;;27.32;46.12;94578.88;2944983;40;20044;-68
2021/08/01 07:52:38;;;;;;;;;;;;;;;27.31;46.40;94588.81;2949577;40;19948;-69
2021/08/01 07:54:41;;;;;;;;;;;;;;;26.99;47.00;94580.91;2947141;40;20167;-68
2021/08/01 07:56:43;;;;;;;;;;;;;;;27.01;47.24;94581.47;2946267;40;20264;-68
2021/08/01 07:58:44;;;;;;;;;;;;;;;27.01;46.97;94575.28;2950076;40;19937;-68
2021/08/01 08:00:46;;;;;;;;;;;;;;;26.94;47.03;94572.84;2949596;40;19933;-70
2021/08/01 08:02:48;;;;;;;;;;;;;;;27.00;47.22;94571.00;2943776;40;20052;-69
2021/08/01 08:04:50;;;;;;;;;;;;;;;27.31;46.68;94566.50;2939732;40;20192;-69
2021/08/01 08:06:52;;;;;;;;;;;;;;;27.50;45.84;94564.09;2945503;40;19977;-68
2021/08/01 08:08:53;;;;;;;;;;;;;;;27.64;45.64;94565.19;2944378;40;20027;-69
2021/08/01 08:10:55;;;;;;;;;;;;;;;27.78;45.65;94552.78;2949500;40;19933;-68
2021/08/01 08:12:57;;;;;;;;;;;;;;;27.90;45.54;94557.09;2950473;40;19941;-69
2021/08/01 08:14:58;;;;;;;;;;;;;;;28.05;44.87;94546.34;2949205;40;20043;-69
2021/08/01 08:17:00;;;;;;;;;;;;;;;28.12;44.51;94552.25;2945899;40;19969;-68
2021/08/01 08:19:02;;;;;;;;;;;;;;;28.18;43.96;94553.03;2939886;40;19959;-69
2021/08/01 08:21:03;;;;;;;;;;;;;;;28.12;44.52;94546.84;2941849;40;19949;-69
2021/08/01 08:23:05;;;;;;;;;;;;;;;28.45;44.49;94541.09;2949938;40;20210;-68
2021/08/01 08:25:07;;;;;;;;;;;;;;;28.73;43.97;94542.34;2950233;40;19945;-69
2021/08/01 08:27:08;;;;;;;;;;;;;;;28.95;43.15;94545.50;2946496;40;20047;-69
2021/08/01 08:29:10;;;;;;;;;;;;;;;29.00;42.04;94541.97;2947340;40;20031;-69
2021/08/01 08:31:11;;;;;;;;;;;;;;;28.85;42.50;94540.16;2949805;40;20030;-70
2021/08/01 08:33:13;;;;;;;;;;;;;;;29.01;42.33;94540.84;2935787;40;19941;-69
2021/08/01 08:35:15;;;;;;;;;;;;;;;28.96;41.70;94539.00;2951693;40;19967;-80
2021/08/01 08:37:16;;;;;;;;;;;;;;;29.04;41.86;94531.41;2951556;40;20022;-81
2021/08/01 08:39:19;;;;;;;;;;;;;;;29.06;40.65;94535.47;2953588;40;19982;-81
2021/08/01 08:41:21;;;;;;;;;;;;;;;28.97;41.08;94539.81;2952409;40;20074;-81
2021/08/01 08:43:22;;;;;;;;;;;;;;;29.12;41.00;94528.16;2943164;40;20037;-78
2021/08/01 08:45:24;;;;;;;;;;;;;;;29.08;40.14;94524.38;2952183;40;20219;-81
2021/08/01 08:47:26;;;;;;;;;;;;;;;28.89;41.00;94524.22;2952960;40;19952;-79
2021/08/01 08:49:28;;;;;;;;;;;;;;;28.80;40.75;94518.59;2951007;40;19952;-82
2021/08/01 08:51:30;;;;;;;;;;;;;;;28.49;40.92;94510.66;2944957;40;19969;-81
2021/08/01 08:53:31;;;;;;;;;;;;;;;28.73;41.01;94516.19;2945965;40;19934;-82
2021/08/01 08:55:34;;;;;;;;;;;;;;;29.12;40.09;94512.75;2949921;40;19936;-80
2021/08/01 08:57:39;;;;;;;;;;;;;;;29.03;39.95;94514.41;2950023;40;20023;-81
2021/08/01 08:59:40;;;;;;;;;;;;;;;29.15;39.86;94523.00;2948917;40;19937;-80
2021/08/01 09:01:42;;;;;;;;;;;;;;;28.98;40.35;94517.16;2946818;40;20258;-82
2021/08/01 09:03:45;;;;;;;;;;;;;;;29.09;39.91;94512.50;2939231;40;20266;-79
2021/08/01 09:05:51;;;;;;;;;;;;;;;29.10;40.44;94508.75;2946097;40;19945;-79
2021/08/01 09:07:53;;;;;;;;;;;;;;;29.26;40.42;94515.66;2941738;40;20378;-80
2021/08/01 09:09:54;;;;;;;;;;;;;;;29.42;39.93;94507.44;2941781;40;19950;-79
2021/08/01 09:11:56;;;;;;;;;;;;;;;29.23;40.69;94507.31;2944162;40;20035;-80
2021/08/01 09:13:57;;;;;;;;;;;;;;;29.16;40.23;94503.03;2950376;40;19951;-79
2021/08/01 09:15:59;;;;;;;;;;;;;;;29.33;39.95;94512.63;2951429;40;20219;-80
2021/08/01 09:18:01;;;;;;;;;;;;;;;29.37;39.99;94511.78;2953330;40;20023;-81
2021/08/01 09:20:13;;;;;;;;;;;;;;;29.09;40.59;94499.03;2943532;40;20052;-79
2021/08/01 09:22:18;;;;;;;;;;;;;;;29.36;41.29;94502.09;2942364;40;20011;-83
2021/08/01 09:24:20;;;;;;;;;;;;;;;29.76;40.38;94492.03;2942687;40;19945;-80
2021/08/01 09:26:22;;;;;;;;;;;;;;;30.05;39.89;94490.41;2952781;40;19937;-80
2021/08/01 09:28:24;;;;;;;;;;;;;;;30.12;39.47;94493.59;2952859;40;20026;-82
2021/08/01 09:30:39;;;;;;;;;;;;;;;30.42;38.95;94495.16;2950150;40;20027;-81
2021/08/01 09:32:45;;;;;;;;;;;;;;;30.37;38.97;94495.22;2948739;40;20004;-80
2021/08/01 09:34:48;;;;;;;;;;;;;;;30.28;38.87;94500.44;2951645;40;20307;-80
2021/08/01 09:36:56;;;;;;;;;;;;;;;30.05;39.20;94502.03;2952369;40;19956;-82
2021/08/01 09:38:58;;;;;;;;;;;;;;;30.07;39.81;94489.03;2953512;40;19978;-82
2021/08/01 09:41:03;;;;;;;;;;;;;;;30.05;39.34;94485.00;2951655;40;20404;-80
2021/08/01 09:43:09;;;;;;;;;;;;;;;30.08;39.38;94485.25;2939833;40;20338;-69
2021/08/01 09:45:11;;;;;;;;;;;;;;;29.99;39.21;94473.47;2950682;40;20067;-68
2021/08/01 09:47:23;;;;;;;;;;;;;;;30.24;39.33;94471.56;2944989;40;20289;-69
2021/08/01 09:49:29;;;;;;;;;;;;;;;30.66;38.75;94465.38;2950072;40;20015;-69
2021/08/01 09:51:30;;;;;;;;;;;;;;;30.87;38.44;94470.53;2945876;40;20486;-69
2021/08/01 09:53:32;;;;;;;;;;;;;;;31.12;38.35;94469.34;2949485;40;19949;-70
2021/08/01 09:55:33;;;;;;;;;;;;;;;31.33;37.68;94467.13;2951238;40;20038;-69
2021/08/01 09:57:35;;;;;;;;;;;;;;;31.16;37.50;94459.56;2944568;40;20404;-68
2021/08/01 09:59:36;;;;;;;;;;;;;;;31.08;37.65;94457.50;2949829;40;19945;-69
2021/08/01 10:01:51;;;;;;;;;;;;;;;30.97;37.97;94457.66;2941278;40;20032;-70
2021/08/01 10:03:53;;;;;;;;;;;;;;;30.82;38.55;94444.34;2944623;40;19969;-67
2021/08/01 10:06:15;;;;;;;;;;;;;;;30.96;38.34;94447.16;2949383;40;20263;-70
2021/08/01 10:08:25;;;;;;;;;;;;;;;31.42;37.70;94451.81;2951170;40;19948;-69
2021/08/01 10:10:27;;;;;;;;;;;;;;;31.68;36.97;94456.84;2941665;40;20765;-69
2021/08/01 10:12:28;;;;;;;;;;;;;;;31.89;37.04;94446.44;2950612;40;19952;-68
2021/08/01 10:14:30;;;;;;;;;;;;;;;31.51;37.04;94444.66;2943083;40;20093;-70
2021/08/01 10:16:32;;;;;;;;;;;;;;;31.55;36.91;94436.75;2945398;40;19998;-70
2021/08/01 10:18:34;;;;;;;;;;;;;;;31.66;36.93;94435.47;2945451;40;19933;-69
2021/08/01 10:20:36;;;;;;;;;;;;;;;31.77;36.62;94417.94;2950806;40;19933;-69
2021/08/01 10:22:39;;;;;;;;;;;;;;;31.71;36.72;94421.06;2940434;40;19940;-68
2021/08/01 10:24:42;;;;;;;;;;;;;;;31.59;37.06;94430.44;2943820;40;19954;-67
2021/08/01 10:26:47;;;;;;;;;;;;;;;31.45;37.54;94426.09;2947472;40;19963;-67
2021/08/01 10:28:50;;;;;;;;;;;;;;;31.67;37.29;94425.47;2949720;40;19961;-69
2021/08/01 10:30:52;;;;;;;;;;;;;;;31.67;37.31;94430.88;2950700;40;20034;-67
2021/08/01 10:32:57;;;;;;;;;;;;;;;32.03;37.37;94420.19;2950580;40;20289;-67
2021/08/01 10:34:58;;;;;;;;;;;;;;;32.24;36.08;94410.56;2949515;40;19995;-68
2021/08/01 10:37:00;;;;;;;;;;;;;;;32.14;36.00;94408.03;2948487;40;19964;-68
2021/08/01 10:39:02;;;;;;;;;;;;;;;32.43;35.47;94401.47;2946642;40;19969;-67
2021/08/01 10:41:05;;;;;;;;;;;;;;;32.69;35.74;94390.88;2951170;40;19949;-69